createdAt,value
2022-09-07T00:01:05.655Z,0.77
2022-09-07T00:06:10.020Z,0.38
2022-09-07T00:16:17.689Z,0.60
2022-09-07T00:21:19.232Z,0.88
2022-09-07T00:26:23.358Z,0.65
2022-09-07T00:31:25.569Z,0.80
2022-09-07T00:36:27.417Z,0.90
2022-09-07T00:41:29.206Z,0.70
2022-09-07T00:46:34.457Z,0.70
2022-09-07T00:51:43.818Z,0.65
2022-09-07T00:56:48.150Z,0.80
2022-09-07T01:06:55.112Z,0.68
2022-09-07T01:12:00.088Z,0.50
2022-09-07T01:17:38.622Z,0.60
2022-09-07T01:23:17.309Z,0.70
2022-09-07T01:28:28.555Z,0.57
2022-09-07T01:33:42.110Z,0.55
2022-09-07T01:38:54.880Z,0.60
2022-09-07T01:44:11.914Z,0.65
2022-09-07T01:49:33.635Z,1.02
2022-09-07T01:54:41.902Z,0.70
2022-09-07T02:00:09.644Z,0.60
2022-09-07T02:05:18.484Z,0.93
2022-09-07T02:10:32.621Z,0.60
2022-09-07T02:20:44.928Z,0.68
2022-09-07T02:25:55.929Z,0.90
2022-09-07T02:30:57.721Z,0.95
2022-09-07T02:36:01.468Z,0.93
2022-09-07T02:41:04.286Z,0.95
2022-09-07T02:46:27.176Z,0.95
2022-09-07T02:51:35.944Z,1.25
2022-09-07T02:56:54.069Z,1.48
2022-09-07T03:02:07.332Z,1.40
2022-09-07T03:07:14.233Z,1.50
2022-09-07T03:12:16.593Z,1.30
2022-09-07T03:17:18.515Z,1.40
2022-09-07T03:22:20.057Z,1.20
2022-09-07T03:27:21.696Z,1.20
2022-09-07T03:32:23.181Z,1.60
2022-09-07T03:37:25.253Z,1.52
2022-09-07T03:42:26.757Z,1.63
2022-09-07T03:47:28.397Z,1.75
2022-09-07T03:52:30.115Z,1.33
2022-09-07T03:57:31.755Z,1.58
2022-09-07T04:02:33.329Z,1.10
2022-09-07T04:07:35.070Z,1.50
2022-09-07T04:12:36.552Z,1.60
2022-09-07T04:17:38.188Z,1.40
2022-09-07T04:22:39.737Z,1.30
2022-09-07T04:27:41.238Z,1.40
2022-09-07T04:32:42.763Z,2.05
2022-09-07T04:37:44.684Z,1.63
2022-09-07T04:42:46.190Z,1.70
2022-09-07T04:47:50.749Z,1.75
2022-09-07T04:52:52.265Z,1.58
2022-09-07T04:57:56.917Z,1.60
2022-09-07T05:02:58.400Z,2.33
2022-09-07T05:07:59.904Z,1.75
2022-09-07T05:13:02.686Z,2.00
2022-09-07T05:18:04.757Z,1.55
2022-09-07T05:23:06.352Z,1.63
2022-09-07T05:28:08.184Z,1.40
2022-09-07T05:33:09.850Z,2.08
2022-09-07T05:38:11.369Z,1.60
2022-09-07T05:43:12.884Z,1.67
2022-09-07T05:48:14.451Z,1.52
2022-09-07T05:53:15.963Z,1.80
2022-09-07T05:58:18.612Z,1.83
2022-09-07T06:03:20.293Z,2.00
2022-09-07T06:08:21.942Z,1.85
2022-09-07T06:13:23.691Z,1.75
2022-09-07T06:18:29.559Z,1.75
2022-09-07T06:23:32.278Z,1.48
2022-09-07T06:28:36.723Z,1.73
2022-09-07T06:33:39.369Z,2.00
2022-09-07T06:38:42.012Z,1.50
2022-09-07T06:43:46.143Z,1.65
2022-09-07T06:53:49.534Z,1.35
2022-09-07T06:58:55.129Z,1.55
2022-09-07T07:03:56.705Z,2.22
2022-09-07T07:08:58.266Z,1.63
2022-09-07T07:14:00.780Z,1.40
2022-09-07T07:19:02.338Z,1.70
2022-09-07T07:24:08.111Z,1.90
2022-09-07T07:29:10.148Z,1.73
2022-09-07T07:34:11.809Z,1.80
2022-09-07T07:44:34.921Z,1.30
2022-09-07T07:49:36.848Z,1.85
2022-09-07T07:54:38.570Z,1.58
2022-09-07T07:59:40.160Z,1.73
2022-09-07T08:04:41.735Z,1.90
2022-09-07T08:09:45.594Z,2.13
2022-09-07T08:14:48.178Z,1.65
2022-09-07T08:19:49.759Z,1.80
2022-09-07T08:24:51.338Z,1.90
2022-09-07T08:29:52.843Z,2.20
2022-09-07T08:34:54.260Z,2.15
2022-09-07T08:39:55.711Z,1.80
2022-09-07T08:45:06.166Z,1.65
2022-09-07T08:50:18.344Z,1.65
2022-09-07T08:55:38.948Z,1.48
2022-09-07T09:00:40.442Z,1.90
2022-09-07T09:05:57.500Z,2.03
2022-09-07T09:11:25.953Z,1.83
2022-09-07T09:16:47.831Z,1.90
2022-09-07T09:22:00.368Z,3.22
2022-09-07T09:27:01.954Z,3.30
2022-09-07T09:32:41.577Z,2.72
2022-09-07T09:37:43.967Z,2.42
2022-09-07T09:42:45.739Z,2.40
2022-09-07T09:47:50.743Z,2.30
2022-09-07T09:52:53.032Z,2.85
2022-09-07T10:09:01.824Z,2.95
2022-09-07T10:14:04.379Z,3.05
2022-09-07T10:19:06.289Z,2.63
2022-09-07T10:24:07.787Z,2.83
2022-09-07T10:29:29.648Z,3.03
2022-09-07T10:34:52.787Z,3.00
2022-09-07T10:40:20.855Z,2.45
2022-09-07T10:45:38.965Z,2.90
2022-09-07T10:51:12.515Z,2.63
2022-09-07T10:56:23.188Z,2.45
2022-09-07T11:01:36.388Z,2.72
2022-09-07T11:06:42.362Z,2.93
2022-09-07T11:12:09.792Z,2.78
2022-09-07T11:17:20.614Z,3.30
2022-09-07T11:22:35.022Z,2.42
2022-09-07T11:27:52.850Z,2.50
2022-09-07T11:33:12.710Z,2.88
2022-09-07T11:38:20.120Z,3.85
2022-09-07T11:43:27.305Z,7.68
2022-09-07T11:48:53.853Z,3.65
2022-09-07T11:54:00.469Z,2.88
2022-09-07T11:59:23.262Z,3.03
2022-09-07T12:04:56.609Z,3.40
2022-09-07T12:10:27.787Z,3.38
2022-09-07T12:15:57.057Z,2.53
2022-09-07T12:20:58.677Z,3.08
2022-09-07T12:26:34.449Z,3.03
2022-09-07T12:31:57.717Z,2.28
2022-09-07T12:37:39.358Z,2.85
2022-09-07T12:42:40.872Z,2.90
2022-09-07T12:47:42.336Z,3.45
2022-09-07T12:52:45.570Z,2.67
2022-09-07T12:58:36.709Z,3.40
2022-09-07T13:04:09.829Z,3.22
2022-09-07T13:09:32.697Z,3.45
2022-09-07T13:14:37.720Z,4.18
2022-09-07T13:19:51.334Z,10.40
2022-09-07T13:24:55.192Z,5.05
2022-09-07T13:30:29.172Z,4.80
2022-09-07T13:35:31.863Z,5.53
2022-09-07T13:40:38.291Z,7.57
2022-09-07T13:45:54.759Z,5.38
2022-09-07T13:51:04.149Z,4.30
2022-09-07T13:56:33.250Z,4.45
2022-09-07T14:01:35.183Z,3.65
2022-09-07T14:06:38.375Z,3.60
2022-09-07T14:11:47.841Z,4.38
2022-09-07T14:17:04.701Z,3.70
2022-09-07T14:22:14.509Z,4.40
2022-09-07T14:27:39.319Z,4.45
2022-09-07T14:32:41.489Z,3.38
2022-09-07T14:37:44.803Z,3.00
2022-09-07T14:42:49.884Z,4.18
2022-09-07T14:47:53.892Z,3.40
2022-09-07T14:58:23.814Z,5.00
2022-09-07T15:03:30.266Z,3.60
2022-09-07T15:08:43.229Z,4.03
2022-09-07T15:13:52.455Z,4.03
2022-09-07T15:19:03.551Z,5.88
2022-09-07T15:24:07.420Z,3.55
2022-09-07T15:29:18.196Z,3.13
2022-09-07T15:34:20.783Z,10.60
2022-09-07T15:39:25.606Z,4.30
2022-09-07T15:44:28.434Z,3.55
2022-09-07T15:49:30.120Z,3.08
2022-09-07T15:54:35.232Z,5.30
2022-09-07T15:59:38.468Z,21.92
2022-09-07T16:04:40.756Z,4.35
2022-09-07T16:09:42.376Z,3.17
2022-09-07T16:14:44.147Z,3.83
2022-09-07T16:19:45.741Z,3.85
2022-09-07T16:24:47.861Z,2.75
2022-09-07T16:29:49.288Z,7.22
2022-09-07T16:34:51.225Z,5.97
2022-09-07T16:39:53.195Z,2.60
2022-09-07T16:44:54.884Z,3.00
2022-09-07T16:49:56.868Z,3.40
2022-09-07T16:54:58.284Z,8.20
2022-09-07T16:59:59.831Z,3.63
2022-09-07T17:05:01.273Z,3.15
2022-09-07T17:10:04.030Z,5.80
2022-09-07T17:15:08.273Z,17.13
2022-09-07T17:20:10.055Z,3.10
2022-09-07T17:25:14.017Z,3.70
2022-09-07T17:30:15.695Z,3.10
2022-09-07T17:35:19.121Z,2.75
2022-09-07T17:40:20.574Z,3.33
2022-09-07T17:45:22.000Z,3.38
2022-09-07T17:50:23.496Z,3.20
2022-09-07T17:55:25.065Z,3.22
2022-09-07T18:00:26.505Z,3.25
2022-09-07T18:05:27.990Z,3.28
2022-09-07T18:11:44.920Z,4.05
2022-09-07T18:15:50.981Z,3.58
2022-09-07T18:20:52.397Z,3.63
2022-09-07T18:25:58.312Z,3.92
2022-09-07T18:31:08.846Z,3.60
2022-09-07T18:36:11.482Z,3.65
2022-09-07T18:41:14.704Z,3.47
2022-09-07T18:46:21.783Z,3.30
2022-09-07T18:51:23.432Z,4.18
2022-09-07T18:56:25.194Z,3.85
2022-09-07T19:01:27.009Z,4.00
2022-09-07T19:06:28.597Z,3.95
2022-09-07T19:11:30.562Z,3.80
2022-09-07T19:16:32.815Z,3.90
2022-09-07T19:21:37.265Z,3.88
2022-09-07T19:26:41.118Z,3.90
2022-09-07T19:32:07.452Z,4.55
2022-09-07T19:37:11.258Z,4.68
2022-09-07T19:42:13.205Z,4.50
2022-09-07T19:47:14.667Z,4.80
2022-09-07T19:52:16.518Z,5.32
2022-09-07T19:57:17.957Z,4.28
2022-09-07T20:02:19.448Z,4.95
2022-09-07T20:07:21.105Z,4.63
2022-09-07T20:12:22.506Z,4.63
2022-09-07T20:17:24.101Z,4.97
2022-09-07T20:22:25.637Z,5.57
2022-09-07T20:27:27.095Z,5.20
2022-09-07T20:32:28.522Z,5.68
2022-09-07T20:37:30.981Z,5.50
2022-09-07T20:42:32.429Z,5.20
2022-09-07T20:47:34.542Z,5.05
2022-09-07T20:52:35.968Z,6.15
2022-09-07T20:57:37.914Z,5.40
2022-09-07T21:02:39.464Z,5.65
2022-09-07T21:07:41.307Z,6.35
2022-09-07T21:12:42.780Z,6.75
2022-09-07T21:17:44.177Z,6.45
2022-09-07T21:22:45.892Z,6.45
2022-09-07T21:27:47.293Z,6.32
2022-09-07T21:32:52.233Z,7.30
2022-09-07T21:37:53.639Z,7.07
2022-09-07T21:42:55.095Z,6.43
2022-09-07T21:47:56.597Z,8.23
2022-09-07T21:52:58.092Z,7.70
2022-09-07T21:57:59.729Z,7.90
2022-09-07T22:03:01.151Z,7.25
2022-09-07T22:08:02.858Z,7.82
2022-09-07T22:13:04.311Z,8.40
2022-09-07T22:18:12.693Z,7.22
2022-09-07T22:23:14.107Z,8.20
2022-09-07T22:28:15.495Z,7.57
2022-09-07T22:33:16.961Z,7.90
2022-09-07T22:38:18.365Z,7.70
2022-09-07T22:43:19.796Z,7.38
2022-09-07T22:48:21.256Z,7.63
2022-09-07T22:53:22.864Z,7.85
2022-09-07T22:58:24.853Z,7.40
2022-09-07T23:03:28.781Z,8.02
2022-09-07T23:08:30.945Z,8.32
2022-09-07T23:13:33.505Z,8.45
2022-09-07T23:18:35.796Z,8.38
2022-09-07T23:23:38.076Z,8.32
2022-09-07T23:28:39.641Z,7.93
2022-09-07T23:33:41.081Z,8.70
2022-09-07T23:38:42.957Z,8.15
2022-09-07T23:43:45.244Z,7.35
2022-09-07T23:48:48.374Z,7.13
2022-09-07T23:53:51.029Z,7.15
2022-09-07T23:58:52.612Z,6.47
